Pagrindinis puslapis
METAR-TAF:

METAR-TAF

Oro uostai :

Abha, Saudo Arabija

platuma: 18-14N, ilguma: 042-39E, Aukštis: 2090 m

Dabartinis oras

Ataskaita buvo paskelbta 35 minutes, ne 15:00 UTC
Vėjas 10 kt iš Pietų/Pietvakarių
Temperatūra 19°C
Drėgmė 56%
Slėgis 1022 hPa
Matomumas 10 km arba daugiau
Išsisklaidę debesys ne aukštis 1800 ft

METAR: OEAB 291500Z 21010KT 9999 SCT018 19/10 Q1022 NOSIG

Laikas: 18:35 (15:35 UTC)

Prognozė

Ataskaita buvo paskelbta 4 valandos ir 35 minutes, ne 11:00 UTC
Prognozė galioja nuo 29 metu 12 UTC su 30 metu 18 UTC
Vėjas 16 kt iš Pietų/Pietvakarių
Matomumas 10 km arba daugiau
Išsisklaidę debesys ne aukštis 2000 ft
Laikinai
nuo 29 metu 12 UTC su 29 metu 16 UTC
Matomumas: 5000 m
Mažai debesys ne aukštis 2500 ft, Liūtiniai kamuoliniai debesys.
Dulkes pustymas
Tapsmas
nuo 29 metu 18 UTC su 29 metu 20 UTC
Vėjas 3 kt nuo kintamojo kryptimis

TAF: OEAB 291100Z 2912/3018 20016KT 9999 SCT020 TEMPO 2912/2916 5000 BLDU FEW025CB BECMG 2918/2920 VRB03KT

Orai ataskaitas ir orų prognozės (METAR, TAF).

turimą stotys yra geltonos ir raudonos taškus žemėlapyje.

Perkelti pele per norėdami pamatyti stoties vardą.

Tada spustelėkite, norėdami matyti oro stebėjimo ir prognozės.

Norėdami pakeisti žemėlapį: spustelėkite ant žalios mygtukų su juodo kryžiaus žemyn,; žalią mygtuką su brūkšneliu, jei norite nutolinti; arba žalių rodyklių gretimoms žemėlapius.


METAR-TAF: